Festos Palace — SYNR — position and weather

sailwx.info

Track history (hours):
 
Tides and Currents Weather Stations Pressure Air Temp Water Temp Dewpoint Dewpoint Depression Visibility Wind Speed Wind Dir Waves Ship Positions

Festos Palace

Last reported at 2018-Feb-21 20:26 UTC. Time now 2018-Feb-22 05:14 UTC.
Position N 37°35' E 023°45'.

Length 214 m; draft 6.7 m.

Type: Ship. MMSI: 237611000.

Date/timePositionNaut miles runAvg speedWind from/ knotsBaromVisibWave heightAir tempDewpointWater temp
2018-Feb-21 20:26N 37°35' E 023°45'818.8
2018-Feb-21 20:00N 37°43' E 023°41'918.6
2018-Feb-21 19:30N 37°51' E 023°37'510.3
2018-Feb-21 19:00N 37°57' E 023°38'0 0.0
2018-Feb-21 18:30N 37°57' E 023°38'0 0.0
2018-Feb-21 18:00N 37°57' E 023°38'0 0.0
2018-Feb-21 17:30N 37°57' E 023°38'0 0.0
2018-Feb-21 17:00N 37°57' E 023°38'0 0.0
2018-Feb-21 16:30N 37°57' E 023°38'0 0.0
2018-Feb-21 16:00N 37°57' E 023°38'0 0.0
2018-Feb-21 15:31N 37°57' E 023°38'0 0.0
2018-Feb-21 15:00N 37°57' E 023°38'0 0.0
2018-Feb-21 14:30N 37°57' E 023°38'0 0.0
2018-Feb-21 14:00N 37°57' E 023°38'0 0.0
2018-Feb-21 13:30N 37°57' E 023°38'0 0.0
2018-Feb-21 13:00N 37°57' E 023°38'0 0.0
2018-Feb-21 12:30N 37°57' E 023°38'0 0.0
2018-Feb-21 12:01N 37°57' E 023°38'0 0.0
2018-Feb-21 11:30N 37°57' E 023°38'0 0.0
2018-Feb-21 11:00N 37°57' E 023°38'0 0.0
2018-Feb-21 10:30N 37°57' E 023°38'0 0.0
2018-Feb-21 10:00N 37°57' E 023°38'0 0.0
2018-Feb-21 09:30N 37°57' E 023°38'0 0.0
2018-Feb-21 09:00N 37°57' E 023°38'0 0.0
2018-Feb-21 08:30N 37°57' E 023°38'0 0.0
2018-Feb-21 08:00N 37°57' E 023°38'0 0.0
2018-Feb-21 07:30N 37°57' E 023°38'0 0.0
2018-Feb-21 07:00N 37°57' E 023°38'0 0.0
2018-Feb-21 06:30N 37°57' E 023°38'0 0.0
2018-Feb-21 06:00N 37°57' E 023°38'0 0.0
2018-Feb-21 05:30N 37°57' E 023°38'0 0.0
2018-Feb-21 05:00N 37°57' E 023°38'0 0.2
2018-Feb-21 04:30N 37°57' E 023°38'713.5
2018-Feb-21 04:00N 37°50' E 023°40'1020.1
2018-Feb-21 03:30N 37°41' E 023°45'7 0.2
2018-Feb-19 20:28N 37°33' E 023°46'919.4
2018-Feb-19 20:00N 37°41' E 023°41'1019.5
2018-Feb-19 19:30N 37°51' E 023°37'612.1
2018-Feb-19 19:00N 37°57' E 023°38'0 0.0
2018-Feb-19 18:30N 37°57' E 023°38'0 0.0
2018-Feb-19 18:01N 37°57' E 023°38'0 0.0
2018-Feb-19 17:30N 37°57' E 023°38'0 0.0
2018-Feb-19 17:00N 37°57' E 023°38'0 0.0
2018-Feb-19 16:31N 37°57' E 023°38'0 0.0
2018-Feb-19 16:00N 37°57' E 023°38'0 0.0
2018-Feb-19 15:30N 37°57' E 023°38'0 0.0
2018-Feb-19 15:00N 37°57' E 023°38'0 0.0
2018-Feb-19 14:30N 37°57' E 023°38'0 0.0
2018-Feb-19 14:01N 37°57' E 023°38'0 0.0
2018-Feb-19 13:30N 37°57' E 023°38'0 0.0
2018-Feb-19 13:00N 37°57' E 023°38'0 0.0
2018-Feb-19 12:30N 37°57' E 023°38'0 0.0
2018-Feb-19 12:00N 37°57' E 023°38'0 0.0
2018-Feb-19 11:30N 37°57' E 023°38'0 0.0
2018-Feb-19 11:00N 37°57' E 023°38'0 0.0
2018-Feb-19 10:30N 37°57' E 023°38'0 0.0
2018-Feb-19 10:00N 37°57' E 023°38'0 0.0
2018-Feb-19 09:30N 37°57' E 023°38'0 0.0
2018-Feb-19 09:00N 37°57' E 023°38'0 0.0
2018-Feb-19 08:30N 37°57' E 023°38'0 0.0
2018-Feb-19 08:00N 37°57' E 023°38'0 0.0
2018-Feb-19 07:30N 37°57' E 023°38'0 0.0
2018-Feb-19 07:00N 37°57' E 023°38'0 0.0
2018-Feb-19 06:30N 37°57' E 023°38'0 0.0
2018-Feb-19 06:00N 37°57' E 023°38'0 0.0
2018-Feb-19 05:30N 37°57' E 023°38'0 0.0
2018-Feb-19 05:00N 37°57' E 023°38'0 0.3
2018-Feb-19 04:30N 37°56' E 023°38'713.9
2018-Feb-19 04:00N 37°50' E 023°41'1019.4
2018-Feb-19 03:30N 37°41' E 023°46'8 0.3
2018-Feb-17 20:36N 37°33' E 023°46'219.7
2018-Feb-17 20:30N 37°35' E 023°45'1019.4
2018-Feb-17 20:00N 37°44' E 023°40'918.8
2018-Feb-17 19:31N 37°53' E 023°37'4 7.1
2018-Feb-17 19:00N 37°57' E 023°38'0 0.0
2018-Feb-17 18:30N 37°57' E 023°38'0 0.0
2018-Feb-17 18:00N 37°57' E 023°38'0 0.0
2018-Feb-17 17:30N 37°57' E 023°38'0 0.0
2018-Feb-17 17:00N 37°57' E 023°38'0 0.0
2018-Feb-17 16:30N 37°57' E 023°38'0 0.0
2018-Feb-17 16:00N 37°57' E 023°38'0 0.0
2018-Feb-17 15:30N 37°57' E 023°38'0 0.0
2018-Feb-17 15:00N 37°57' E 023°38'0 0.0
2018-Feb-17 14:30N 37°57' E 023°38'0 0.0
2018-Feb-17 14:00N 37°57' E 023°38'0 0.0
2018-Feb-17 13:30N 37°57' E 023°38'0 0.0
2018-Feb-17 12:59N 37°57' E 023°38'0 0.0
2018-Feb-17 12:30N 37°57' E 023°38'0 0.0
2018-Feb-17 12:00N 37°57' E 023°38'0 0.0
2018-Feb-17 11:30N 37°57' E 023°38'0 0.0
2018-Feb-17 11:00N 37°57' E 023°38'0 0.0
2018-Feb-17 10:30N 37°57' E 023°38'0 0.0
2018-Feb-17 10:00N 37°57' E 023°38'0 0.0
2018-Feb-17 09:30N 37°57' E 023°38'0 0.0
2018-Feb-17 09:00N 37°57' E 023°38'0 0.0
2018-Feb-17 08:30N 37°57' E 023°38'0 0.0
2018-Feb-17 08:00N 37°57' E 023°38'0 0.0
2018-Feb-17 07:30N 37°57' E 023°38'0 0.0
2018-Feb-17 07:00N 37°57' E 023°38'0 0.0
2018-Feb-17 06:30N 37°57' E 023°38'0 0.0
2018-Feb-17 06:00N 37°57' E 023°38'0 0.0
2018-Feb-17 05:30N 37°57' E 023°38'0 0.0
2018-Feb-17 05:00N 37°57' E 023°38'0 0.5
2018-Feb-17 04:30N 37°56' E 023°38'714.8
2018-Feb-17 04:00N 37°49' E 023°40'1120.9
2018-Feb-17 03:30N 37°40' E 023°46'5 0.1
2018-Feb-15 20:37N 37°35' E 023°45'220.5
2018-Feb-15 20:30N 37°37' E 023°44'1020.4
2018-Feb-15 20:00N 37°47' E 023°39'918.9
2018-Feb-15 19:30N 37°56' E 023°37'1 2.3
2018-Feb-15 19:00N 37°57' E 023°38'0 0.0
2018-Feb-15 18:30N 37°57' E 023°38'0 0.0
2018-Feb-15 18:00N 37°57' E 023°38'0 0.0
2018-Feb-15 17:30N 37°57' E 023°38'0 0.0
2018-Feb-15 17:00N 37°57' E 023°38'0 0.0
2018-Feb-15 16:30N 37°57' E 023°38'0 0.0
2018-Feb-15 16:00N 37°57' E 023°38'0 0.0
2018-Feb-15 15:30N 37°57' E 023°38'0 0.0
2018-Feb-15 15:00N 37°57' E 023°38'0 0.0
2018-Feb-15 14:30N 37°57' E 023°38'0 0.0
2018-Feb-15 14:00N 37°57' E 023°38'0 0.0
2018-Feb-15 13:30N 37°57' E 023°38'0 0.0
2018-Feb-15 13:00N 37°57' E 023°38'0 0.0
2018-Feb-15 12:30N 37°57' E 023°38'0 0.0
2018-Feb-15 12:00N 37°57' E 023°38'0 0.0
2018-Feb-15 11:30N 37°57' E 023°38'0 0.0
2018-Feb-15 11:00N 37°57' E 023°38'0 0.0
2018-Feb-15 10:30N 37°57' E 023°38'0 0.0
2018-Feb-15 10:00N 37°57' E 023°38'0 0.0
2018-Feb-15 09:30N 37°57' E 023°38'0 0.0
2018-Feb-15 09:00N 37°57' E 023°38'0 0.0
2018-Feb-15 08:29N 37°57' E 023°38'0 0.0
2018-Feb-15 08:00N 37°57' E 023°38'0 0.0
2018-Feb-15 07:30N 37°57' E 023°38'0 0.0
2018-Feb-15 07:00N 37°57' E 023°38'0 0.0
2018-Feb-15 06:30N 37°57' E 023°38'0 0.0
2018-Feb-15 05:58N 37°57' E 023°38'0 0.0
2018-Feb-15 05:30N 37°57' E 023°38'0 0.0
2018-Feb-15 04:55N 37°57' E 023°38'1 1.2
2018-Feb-15 04:28N 37°56' E 023°37'510.6
2018-Feb-15 04:00N 37°52' E 023°39'1220.1
2018-Feb-15 03:24N 37°41' E 023°46'8 0.3
2018-Feb-13 20:33N 37°33' E 023°46'118.3
2018-Feb-13 20:29N 37°34' E 023°45'918.5
2018-Feb-13 20:01N 37°42' E 023°41'918.4
2018-Feb-13 19:31N 37°51' E 023°37'610.6
2018-Feb-13 18:58N 37°57' E 023°38'0 0.0
2018-Feb-13 18:28N 37°57' E 023°38'0 0.0
2018-Feb-13 17:58N 37°57' E 023°38'0 0.0
2018-Feb-13 17:30N 37°57' E 023°38'0 0.0
2018-Feb-13 17:00N 37°57' E 023°38'0 0.0
2018-Feb-13 16:30N 37°57' E 023°38'0 0.0
2018-Feb-13 16:00N 37°57' E 023°38'0 0.0
2018-Feb-13 15:30N 37°57' E 023°38'0 0.0
2018-Feb-13 14:59N 37°57' E 023°38'0 0.0
2018-Feb-13 14:29N 37°57' E 023°38'0 0.0
2018-Feb-13 13:59N 37°57' E 023°38'0 0.0
2018-Feb-13 13:26N 37°57' E 023°38'0 0.0
2018-Feb-13 12:58N 37°57' E 023°38'0 0.0
2018-Feb-13 12:25N 37°57' E 023°38'0 0.0
2018-Feb-13 11:58N 37°57' E 023°38'0 0.0
2018-Feb-13 11:28N 37°57' E 023°38'0 0.0
2018-Feb-13 10:58N 37°57' E 023°38'0 0.0
2018-Feb-13 10:30N 37°57' E 023°38'0 0.0
2018-Feb-13 10:00N 37°57' E 023°38'0 0.0
2018-Feb-13 09:30N 37°57' E 023°38'0 0.0
2018-Feb-13 09:00N 37°57' E 023°38'0 0.0
2018-Feb-13 08:29N 37°57' E 023°38'0 0.0
2018-Feb-13 07:59N 37°57' E 023°38'0 0.0
2018-Feb-13 07:29N 37°57' E 023°38'0 0.0
2018-Feb-13 06:59N 37°57' E 023°38'0 0.0
2018-Feb-13 06:29N 37°57' E 023°38'0 0.0
2018-Feb-13 05:58N 37°57' E 023°38'0 0.0
2018-Feb-13 05:28N 37°57' E 023°38'0 0.0
2018-Feb-13 04:58N 37°57' E 023°38'0 0.3
2018-Feb-13 04:30N 37°57' E 023°38'612.7
2018-Feb-13 04:00N 37°50' E 023°40'1020.6
2018-Feb-13 03:30N 37°41' E 023°45'  
Track history (hours):
 
Tides and Currents Weather Stations Pressure Air Temp Water Temp Dewpoint Dewpoint Depression Visibility Wind Speed Wind Dir Waves Ship Positions

Festos Palace

Last reported at 2018-Feb-21 20:26 UTC. Time now 2018-Feb-22 05:14 UTC.
Position N 37°35' E 023°45'.

Length 214 m; draft 6.7 m.

Type: Ship. MMSI: 237611000.

Date/timePositionNaut miles runAvg speedWind from/ knotsBaromVisibWave heightAir tempDewpointWater temp
2018-Feb-21 20:26N 37°35' E 023°45'818.8
2018-Feb-21 20:00N 37°43' E 023°41'918.6
2018-Feb-21 19:30N 37°51' E 023°37'510.3
2018-Feb-21 19:00N 37°57' E 023°38'0 0.0
2018-Feb-21 18:30N 37°57' E 023°38'0 0.0
2018-Feb-21 18:00N 37°57' E 023°38'0 0.0
2018-Feb-21 17:30N 37°57' E 023°38'0 0.0
2018-Feb-21 17:00N 37°57' E 023°38'0 0.0
2018-Feb-21 16:30N 37°57' E 023°38'0 0.0
2018-Feb-21 16:00N 37°57' E 023°38'0 0.0
2018-Feb-21 15:31N 37°57' E 023°38'0 0.0
2018-Feb-21 15:00N 37°57' E 023°38'0 0.0
2018-Feb-21 14:30N 37°57' E 023°38'0 0.0
2018-Feb-21 14:00N 37°57' E 023°38'0 0.0
2018-Feb-21 13:30N 37°57' E 023°38'0 0.0
2018-Feb-21 13:00N 37°57' E 023°38'0 0.0
2018-Feb-21 12:30N 37°57' E 023°38'0 0.0
2018-Feb-21 12:01N 37°57' E 023°38'0 0.0
2018-Feb-21 11:30N 37°57' E 023°38'0 0.0
2018-Feb-21 11:00N 37°57' E 023°38'0 0.0
2018-Feb-21 10:30N 37°57' E 023°38'0 0.0
2018-Feb-21 10:00N 37°57' E 023°38'0 0.0
2018-Feb-21 09:30N 37°57' E 023°38'0 0.0
2018-Feb-21 09:00N 37°57' E 023°38'0 0.0
2018-Feb-21 08:30N 37°57' E 023°38'0 0.0
2018-Feb-21 08:00N 37°57' E 023°38'0 0.0
2018-Feb-21 07:30N 37°57' E 023°38'0 0.0
2018-Feb-21 07:00N 37°57' E 023°38'0 0.0
2018-Feb-21 06:30N 37°57' E 023°38'0 0.0
2018-Feb-21 06:00N 37°57' E 023°38'0 0.0
2018-Feb-21 05:30N 37°57' E 023°38'0 0.0
2018-Feb-21 05:00N 37°57' E 023°38'0 0.2
2018-Feb-21 04:30N 37°57' E 023°38'713.5
2018-Feb-21 04:00N 37°50' E 023°40'1020.1
2018-Feb-21 03:30N 37°41' E 023°45'7 0.2
2018-Feb-19 20:28N 37°33' E 023°46'919.4
2018-Feb-19 20:00N 37°41' E 023°41'1019.5
2018-Feb-19 19:30N 37°51' E 023°37'612.1
2018-Feb-19 19:00N 37°57' E 023°38'0 0.0
2018-Feb-19 18:30N 37°57' E 023°38'0 0.0
2018-Feb-19 18:01N 37°57' E 023°38'0 0.0
2018-Feb-19 17:30N 37°57' E 023°38'0 0.0
2018-Feb-19 17:00N 37°57' E 023°38'0 0.0
2018-Feb-19 16:31N 37°57' E 023°38'0 0.0
2018-Feb-19 16:00N 37°57' E 023°38'0 0.0
2018-Feb-19 15:30N 37°57' E 023°38'0 0.0
2018-Feb-19 15:00N 37°57' E 023°38'0 0.0
2018-Feb-19 14:30N 37°57' E 023°38'0 0.0
2018-Feb-19 14:01N 37°57' E 023°38'0 0.0
2018-Feb-19 13:30N 37°57' E 023°38'0 0.0
2018-Feb-19 13:00N 37°57' E 023°38'0 0.0
2018-Feb-19 12:30N 37°57' E 023°38'0 0.0
2018-Feb-19 12:00N 37°57' E 023°38'0 0.0
2018-Feb-19 11:30N 37°57' E 023°38'0 0.0
2018-Feb-19 11:00N 37°57' E 023°38'0 0.0
2018-Feb-19 10:30N 37°57' E 023°38'0 0.0
2018-Feb-19 10:00N 37°57' E 023°38'0 0.0
2018-Feb-19 09:30N 37°57' E 023°38'0 0.0
2018-Feb-19 09:00N 37°57' E 023°38'0 0.0
2018-Feb-19 08:30N 37°57' E 023°38'0 0.0
2018-Feb-19 08:00N 37°57' E 023°38'0 0.0
2018-Feb-19 07:30N 37°57' E 023°38'0 0.0
2018-Feb-19 07:00N 37°57' E 023°38'0 0.0
2018-Feb-19 06:30N 37°57' E 023°38'0 0.0
2018-Feb-19 06:00N 37°57' E 023°38'0 0.0
2018-Feb-19 05:30N 37°57' E 023°38'0 0.0
2018-Feb-19 05:00N 37°57' E 023°38'0 0.3
2018-Feb-19 04:30N 37°56' E 023°38'713.9
2018-Feb-19 04:00N 37°50' E 023°41'1019.4
2018-Feb-19 03:30N 37°41' E 023°46'8 0.3
2018-Feb-17 20:36N 37°33' E 023°46'219.7
2018-Feb-17 20:30N 37°35' E 023°45'1019.4
2018-Feb-17 20:00N 37°44' E 023°40'918.8
2018-Feb-17 19:31N 37°53' E 023°37'4 7.1
2018-Feb-17 19:00N 37°57' E 023°38'0 0.0
2018-Feb-17 18:30N 37°57' E 023°38'0 0.0
2018-Feb-17 18:00N 37°57' E 023°38'0 0.0
2018-Feb-17 17:30N 37°57' E 023°38'0 0.0
2018-Feb-17 17:00N 37°57' E 023°38'0 0.0
2018-Feb-17 16:30N 37°57' E 023°38'0 0.0
2018-Feb-17 16:00N 37°57' E 023°38'0 0.0
2018-Feb-17 15:30N 37°57' E 023°38'0 0.0
2018-Feb-17 15:00N 37°57' E 023°38'0 0.0
2018-Feb-17 14:30N 37°57' E 023°38'0 0.0
2018-Feb-17 14:00N 37°57' E 023°38'0 0.0
2018-Feb-17 13:30N 37°57' E 023°38'0 0.0
2018-Feb-17 12:59N 37°57' E 023°38'0 0.0
2018-Feb-17 12:30N 37°57' E 023°38'0 0.0
2018-Feb-17 12:00N 37°57' E 023°38'0 0.0
2018-Feb-17 11:30N 37°57' E 023°38'0 0.0
2018-Feb-17 11:00N 37°57' E 023°38'0 0.0
2018-Feb-17 10:30N 37°57' E 023°38'0 0.0
2018-Feb-17 10:00N 37°57' E 023°38'0 0.0
2018-Feb-17 09:30N 37°57' E 023°38'0 0.0
2018-Feb-17 09:00N 37°57' E 023°38'0 0.0
2018-Feb-17 08:30N 37°57' E 023°38'0 0.0
2018-Feb-17 08:00N 37°57' E 023°38'0 0.0
2018-Feb-17 07:30N 37°57' E 023°38'0 0.0
2018-Feb-17 07:00N 37°57' E 023°38'0 0.0
2018-Feb-17 06:30N 37°57' E 023°38'0 0.0
2018-Feb-17 06:00N 37°57' E 023°38'0 0.0
2018-Feb-17 05:30N 37°57' E 023°38'0 0.0
2018-Feb-17 05:00N 37°57' E 023°38'0 0.5
2018-Feb-17 04:30N 37°56' E 023°38'714.8
2018-Feb-17 04:00N 37°49' E 023°40'1120.9
2018-Feb-17 03:30N 37°40' E 023°46'5 0.1
2018-Feb-15 20:37N 37°35' E 023°45'220.5
2018-Feb-15 20:30N 37°37' E 023°44'1020.4
2018-Feb-15 20:00N 37°47' E 023°39'918.9
2018-Feb-15 19:30N 37°56' E 023°37'1 2.3
2018-Feb-15 19:00N 37°57' E 023°38'0 0.0
2018-Feb-15 18:30N 37°57' E 023°38'0 0.0
2018-Feb-15 18:00N 37°57' E 023°38'0 0.0
2018-Feb-15 17:30N 37°57' E 023°38'0 0.0
2018-Feb-15 17:00N 37°57' E 023°38'0 0.0
2018-Feb-15 16:30N 37°57' E 023°38'0 0.0
2018-Feb-15 16:00N 37°57' E 023°38'0 0.0
2018-Feb-15 15:30N 37°57' E 023°38'0 0.0
2018-Feb-15 15:00N 37°57' E 023°38'0 0.0
2018-Feb-15 14:30N 37°57' E 023°38'0 0.0
2018-Feb-15 14:00N 37°57' E 023°38'0 0.0
2018-Feb-15 13:30N 37°57' E 023°38'0 0.0
2018-Feb-15 13:00N 37°57' E 023°38'0 0.0
2018-Feb-15 12:30N 37°57' E 023°38'0 0.0
2018-Feb-15 12:00N 37°57' E 023°38'0 0.0
2018-Feb-15 11:30N 37°57' E 023°38'0 0.0
2018-Feb-15 11:00N 37°57' E 023°38'0 0.0
2018-Feb-15 10:30N 37°57' E 023°38'0 0.0
2018-Feb-15 10:00N 37°57' E 023°38'0 0.0
2018-Feb-15 09:30N 37°57' E 023°38'0 0.0
2018-Feb-15 09:00N 37°57' E 023°38'0 0.0
2018-Feb-15 08:29N 37°57' E 023°38'0 0.0
2018-Feb-15 08:00N 37°57' E 023°38'0 0.0
2018-Feb-15 07:30N 37°57' E 023°38'0 0.0
2018-Feb-15 07:00N 37°57' E 023°38'0 0.0
2018-Feb-15 06:30N 37°57' E 023°38'0 0.0
2018-Feb-15 05:58N 37°57' E 023°38'0 0.0
2018-Feb-15 05:30N 37°57' E 023°38'0 0.0
2018-Feb-15 04:55N 37°57' E 023°38'1 1.2
2018-Feb-15 04:28N 37°56' E 023°37'510.6
2018-Feb-15 04:00N 37°52' E 023°39'1220.1
2018-Feb-15 03:24N 37°41' E 023°46'8 0.3
2018-Feb-13 20:33N 37°33' E 023°46'118.3
2018-Feb-13 20:29N 37°34' E 023°45'918.5
2018-Feb-13 20:01N 37°42' E 023°41'918.4
2018-Feb-13 19:31N 37°51' E 023°37'610.6
2018-Feb-13 18:58N 37°57' E 023°38'0 0.0
2018-Feb-13 18:28N 37°57' E 023°38'0 0.0
2018-Feb-13 17:58N 37°57' E 023°38'0 0.0
2018-Feb-13 17:30N 37°57' E 023°38'0 0.0
2018-Feb-13 17:00N 37°57' E 023°38'0 0.0
2018-Feb-13 16:30N 37°57' E 023°38'0 0.0
2018-Feb-13 16:00N 37°57' E 023°38'0 0.0
2018-Feb-13 15:30N 37°57' E 023°38'0 0.0
2018-Feb-13 14:59N 37°57' E 023°38'0 0.0
2018-Feb-13 14:29N 37°57' E 023°38'0 0.0
2018-Feb-13 13:59N 37°57' E 023°38'0 0.0
2018-Feb-13 13:26N 37°57' E 023°38'0 0.0
2018-Feb-13 12:58N 37°57' E 023°38'0 0.0
2018-Feb-13 12:25N 37°57' E 023°38'0 0.0
2018-Feb-13 11:58N 37°57' E 023°38'0 0.0
2018-Feb-13 11:28N 37°57' E 023°38'0 0.0
2018-Feb-13 10:58N 37°57' E 023°38'0 0.0
2018-Feb-13 10:30N 37°57' E 023°38'0 0.0
2018-Feb-13 10:00N 37°57' E 023°38'0 0.0
2018-Feb-13 09:30N 37°57' E 023°38'0 0.0
2018-Feb-13 09:00N 37°57' E 023°38'0 0.0
2018-Feb-13 08:29N 37°57' E 023°38'0 0.0
2018-Feb-13 07:59N 37°57' E 023°38'0 0.0
2018-Feb-13 07:29N 37°57' E 023°38'0 0.0
2018-Feb-13 06:59N 37°57' E 023°38'0 0.0
2018-Feb-13 06:29N 37°57' E 023°38'0 0.0
2018-Feb-13 05:58N 37°57' E 023°38'0 0.0
2018-Feb-13 05:28N 37°57' E 023°38'0 0.0
2018-Feb-13 04:58N 37°57' E 023°38'0 0.3
2018-Feb-13 04:30N 37°57' E 023°38'612.7
2018-Feb-13 04:00N 37°50' E 023°40'1020.6
2018-Feb-13 03:30N 37°41' E 023°45'  

Dump ship's entire track history